createdAt,value
2022-11-30T00:01:36.043Z,75.64
2022-11-30T00:04:03.813Z,75.63
2022-11-30T00:06:31.563Z,75.70
2022-11-30T00:08:59.626Z,75.73
2022-11-30T00:11:31.185Z,75.75
2022-11-30T00:13:59.007Z,75.70
2022-11-30T00:16:30.146Z,75.53
2022-11-30T00:18:58.161Z,75.63
2022-11-30T00:21:26.133Z,75.71
2022-11-30T00:23:54.588Z,75.52
2022-11-30T00:26:25.551Z,75.66
2022-11-30T00:28:53.624Z,75.51
2022-11-30T00:31:22.276Z,75.38
2022-11-30T00:33:53.180Z,75.62
2022-11-30T00:36:24.489Z,75.45
2022-11-30T00:38:52.306Z,75.55
2022-11-30T00:41:22.989Z,75.54
2022-11-30T00:43:53.514Z,75.55
2022-11-30T00:46:21.584Z,75.55
2022-11-30T00:48:52.617Z,75.66
2022-11-30T00:51:20.966Z,75.61
2022-11-30T00:53:51.342Z,75.66
2022-11-30T00:56:19.582Z,75.65
2022-11-30T00:58:47.475Z,75.69
2022-11-30T01:01:15.365Z,75.49
2022-11-30T01:03:48.424Z,75.69
2022-11-30T01:06:19.570Z,75.64
2022-11-30T01:08:50.773Z,75.70
2022-11-30T01:11:25.546Z,75.61
2022-11-30T01:13:55.762Z,75.68
2022-11-30T01:16:30.345Z,75.73
2022-11-30T01:19:00.606Z,75.87
2022-11-30T01:21:31.953Z,75.83
2022-11-30T01:23:59.690Z,75.61
2022-11-30T01:26:30.262Z,75.66
2022-11-30T01:28:58.234Z,75.67
2022-11-30T01:31:26.093Z,75.56
2022-11-30T01:33:59.172Z,75.63
2022-11-30T01:36:27.213Z,75.56
2022-11-30T01:38:59.410Z,75.43
2022-11-30T01:41:31.575Z,75.55
2022-11-30T01:44:07.523Z,75.64
2022-11-30T01:46:59.345Z,75.74
2022-11-30T01:49:36.508Z,75.66
2022-11-30T01:52:16.289Z,75.56
2022-11-30T01:54:59.839Z,75.51
2022-11-30T01:57:38.768Z,75.59
2022-11-30T02:00:12.678Z,75.59
2022-11-30T02:03:13.950Z,75.57
2022-11-30T02:05:44.982Z,75.75
2022-11-30T02:08:12.942Z,75.70
2022-11-30T02:10:54.273Z,75.51
2022-11-30T02:13:49.030Z,75.42
2022-11-30T02:17:03.432Z,75.34
2022-11-30T02:19:49.808Z,75.28
2022-11-30T02:22:45.012Z,75.50
2022-11-30T02:25:45.607Z,75.46
2022-11-30T02:28:54.915Z,75.55
2022-11-30T02:31:34.976Z,75.71
2022-11-30T02:34:08.017Z,75.61
2022-11-30T02:36:38.490Z,75.69
2022-11-30T02:39:10.248Z,75.67
2022-11-30T02:41:41.639Z,75.72
2022-11-30T02:44:13.472Z,75.68
2022-11-30T02:47:00.049Z,75.54
2022-11-30T02:49:35.259Z,75.72
2022-11-30T02:52:07.890Z,75.55
2022-11-30T02:54:35.705Z,75.47
2022-11-30T02:57:06.268Z,75.45
2022-11-30T02:59:34.050Z,75.40
2022-11-30T03:02:02.092Z,75.61
2022-11-30T03:04:32.068Z,75.47
2022-11-30T03:06:59.926Z,75.45
2022-11-30T03:09:27.698Z,75.38
2022-11-30T03:11:58.302Z,75.59
2022-11-30T03:14:26.303Z,75.45
2022-11-30T03:16:54.455Z,75.56
2022-11-30T03:19:22.432Z,75.51
2022-11-30T03:21:52.952Z,75.47
2022-11-30T03:24:20.942Z,75.52
2022-11-30T03:26:48.780Z,75.57
2022-11-30T03:29:16.911Z,75.59
2022-11-30T03:31:45.972Z,75.61
2022-11-30T03:34:13.778Z,75.51
2022-11-30T03:36:41.560Z,75.53
2022-11-30T03:39:11.871Z,75.61
2022-11-30T03:41:42.501Z,75.54
2022-11-30T03:44:10.327Z,75.55
2022-11-30T03:46:38.141Z,75.60
2022-11-30T03:49:11.221Z,75.50
2022-11-30T03:51:39.006Z,75.55
2022-11-30T03:54:09.376Z,75.66
2022-11-30T03:56:39.693Z,75.36
2022-11-30T03:59:07.467Z,75.48
2022-11-30T04:01:39.567Z,75.48
2022-11-30T04:04:08.870Z,75.37
2022-11-30T04:06:36.669Z,75.42
2022-11-30T04:09:07.212Z,75.39
2022-11-30T04:11:38.092Z,75.64
2022-11-30T04:14:06.165Z,75.39
2022-11-30T04:16:33.983Z,75.53
2022-11-30T04:19:04.996Z,75.44
2022-11-30T04:21:32.774Z,75.40
2022-11-30T04:24:00.676Z,75.46
2022-11-30T04:26:28.448Z,75.44
2022-11-30T04:28:56.428Z,75.28
2022-11-30T04:31:24.463Z,75.46
2022-11-30T04:33:56.270Z,75.42
2022-11-30T04:36:24.035Z,75.31
2022-11-30T04:38:51.817Z,75.58
2022-11-30T04:41:19.768Z,75.49
2022-11-30T04:43:47.810Z,75.38
2022-11-30T04:46:15.856Z,75.50
2022-11-30T04:48:45.974Z,75.33
2022-11-30T04:51:14.037Z,75.26
2022-11-30T04:53:43.399Z,75.30
2022-11-30T04:56:14.287Z,75.41
2022-11-30T04:58:42.269Z,75.38
2022-11-30T05:01:13.327Z,75.47
2022-11-30T05:03:41.260Z,75.43
2022-11-30T05:06:09.033Z,75.21
2022-11-30T05:08:36.782Z,75.44
2022-11-30T05:11:04.748Z,75.37
2022-11-30T05:13:32.731Z,75.30
2022-11-30T05:16:02.123Z,75.30
2022-11-30T05:18:33.040Z,75.39
2022-11-30T05:21:04.436Z,75.41
2022-11-30T05:23:32.626Z,75.37
2022-11-30T05:26:05.714Z,75.20
2022-11-30T05:28:36.270Z,75.43
2022-11-30T05:31:07.721Z,75.44
2022-11-30T05:33:35.874Z,75.45
2022-11-30T05:36:10.656Z,75.26
2022-11-30T05:38:39.075Z,75.24
2022-11-30T05:41:07.069Z,75.29
2022-11-30T05:43:36.485Z,75.31
2022-11-30T05:46:07.134Z,75.47
2022-11-30T05:48:38.013Z,75.26
2022-11-30T05:51:09.952Z,75.37
2022-11-30T05:53:40.914Z,75.30
2022-11-30T05:56:15.520Z,75.28
2022-11-30T05:58:49.905Z,75.32
2022-11-30T06:01:36.190Z,75.18
2022-11-30T06:04:08.843Z,75.36
2022-11-30T06:06:37.109Z,75.29
2022-11-30T06:09:04.977Z,75.38
2022-11-30T06:11:34.275Z,75.22
2022-11-30T06:14:02.346Z,75.28
2022-11-30T06:16:30.258Z,75.34
2022-11-30T06:18:58.123Z,75.38
2022-11-30T06:21:25.947Z,75.33
2022-11-30T06:23:53.670Z,75.30
2022-11-30T06:26:21.474Z,75.12
2022-11-30T06:28:49.338Z,75.11
2022-11-30T06:31:17.283Z,75.19
2022-11-30T06:33:45.113Z,75.33
2022-11-30T06:36:12.885Z,75.36
2022-11-30T06:38:40.707Z,75.20
2022-11-30T06:41:10.546Z,75.13
2022-11-30T06:43:39.691Z,75.03
2022-11-30T06:46:08.102Z,75.05
2022-11-30T06:48:36.540Z,75.13
2022-11-30T06:51:09.147Z,74.99
2022-11-30T06:53:37.842Z,75.08
2022-11-30T06:56:10.465Z,75.04
2022-11-30T06:58:39.882Z,75.05
2022-11-30T07:01:10.934Z,75.38
2022-11-30T07:03:40.093Z,75.39
2022-11-30T07:06:13.416Z,75.01
2022-11-30T07:08:43.053Z,74.64
2022-11-30T07:11:12.352Z,75.03
2022-11-30T07:13:40.316Z,75.07
2022-11-30T07:16:11.546Z,75.10
2022-11-30T07:18:39.735Z,75.18
2022-11-30T07:21:08.114Z,75.20
2022-11-30T07:23:56.978Z,75.12
2022-11-30T07:26:25.863Z,75.20
2022-11-30T07:28:55.451Z,75.07
2022-11-30T07:31:26.551Z,75.02
2022-11-30T07:33:55.531Z,75.14
2022-11-30T07:36:26.421Z,74.98
2022-11-30T07:38:55.328Z,75.10
2022-11-30T07:41:23.953Z,75.10
2022-11-30T07:43:51.995Z,75.02
2022-11-30T07:46:20.402Z,74.98
2022-11-30T07:48:50.213Z,75.10
2022-11-30T07:51:21.020Z,75.06
2022-11-30T07:53:50.747Z,75.04
2022-11-30T07:56:21.095Z,75.16
2022-11-30T07:58:51.668Z,75.08
2022-11-30T08:01:22.765Z,75.03
2022-11-30T08:03:52.445Z,75.14
2022-11-30T08:06:29.434Z,75.16
2022-11-30T08:09:00.138Z,75.13
2022-11-30T08:11:31.723Z,75.02
2022-11-30T08:14:00.435Z,75.15
2022-11-30T08:16:31.184Z,75.09
2022-11-30T08:18:59.210Z,75.19
2022-11-30T08:21:26.980Z,75.20
2022-11-30T08:23:57.022Z,75.25
2022-11-30T08:26:32.225Z,75.17
2022-11-30T08:29:02.030Z,75.17
2022-11-30T08:31:33.439Z,74.86
2022-11-30T08:34:08.300Z,74.83
2022-11-30T08:36:36.819Z,75.06
2022-11-30T08:39:07.913Z,75.21
2022-11-30T08:41:36.938Z,75.03
2022-11-30T08:44:06.570Z,74.93
2022-11-30T08:46:50.858Z,74.99
2022-11-30T08:49:23.061Z,75.04
2022-11-30T08:54:46.784Z,74.83
2022-11-30T08:57:17.673Z,74.99
2022-11-30T08:59:48.479Z,74.88
2022-11-30T09:02:19.638Z,74.95
2022-11-30T09:04:49.796Z,75.02
2022-11-30T09:07:18.458Z,74.75
2022-11-30T09:09:47.207Z,74.89
2022-11-30T09:12:15.244Z,74.89
2022-11-30T09:14:43.048Z,74.97
2022-11-30T09:17:11.680Z,74.98
2022-11-30T09:19:40.303Z,74.86
2022-11-30T09:22:08.732Z,74.95
2022-11-30T09:24:38.552Z,75.01
2022-11-30T09:27:06.594Z,75.04
2022-11-30T09:29:37.430Z,75.04
2022-11-30T09:32:05.908Z,74.84
2022-11-30T09:34:35.117Z,74.92
2022-11-30T09:37:03.096Z,75.12
2022-11-30T09:39:31.266Z,75.14
2022-11-30T09:42:34.947Z,75.21
2022-11-30T09:45:19.577Z,75.09
2022-11-30T09:48:21.199Z,75.02
2022-11-30T09:50:51.701Z,74.93
2022-11-30T09:53:40.619Z,75.24
2022-11-30T09:56:31.749Z,75.03
2022-11-30T09:59:15.707Z,75.15
2022-11-30T10:01:46.208Z,74.81
2022-11-30T10:04:23.565Z,74.77
2022-11-30T10:07:22.870Z,75.07
2022-11-30T10:13:24.469Z,74.87
2022-11-30T10:16:14.532Z,75.02
2022-11-30T10:18:48.672Z,74.97
2022-11-30T10:22:01.735Z,74.81
2022-11-30T10:25:11.897Z,74.99
2022-11-30T10:28:12.647Z,75.08
2022-11-30T10:30:50.563Z,74.94
2022-11-30T10:33:24.146Z,74.96
2022-11-30T10:35:55.789Z,74.93
2022-11-30T10:38:30.800Z,74.55
2022-11-30T10:41:09.265Z,74.79
2022-11-30T10:43:46.868Z,74.73
2022-11-30T10:46:31.636Z,74.83
2022-11-30T10:49:07.935Z,75.05
2022-11-30T10:51:41.290Z,74.81
2022-11-30T10:54:17.474Z,74.66
2022-11-30T10:56:46.516Z,75.01
2022-11-30T10:59:31.873Z,74.87
2022-11-30T11:01:59.977Z,75.04
2022-11-30T11:04:28.020Z,75.20
2022-11-30T11:07:07.524Z,75.07
2022-11-30T11:09:37.594Z,74.99
2022-11-30T11:12:19.403Z,74.97
2022-11-30T11:14:49.003Z,75.00
2022-11-30T11:17:19.950Z,75.10
2022-11-30T11:19:51.122Z,74.93
2022-11-30T11:22:23.190Z,74.80
2022-11-30T11:24:56.219Z,74.60
2022-11-30T11:27:29.382Z,74.70
2022-11-30T11:30:08.326Z,74.63
2022-11-30T11:32:36.445Z,74.65
2022-11-30T11:35:35.886Z,74.77
2022-11-30T11:38:18.525Z,74.93
2022-11-30T11:41:06.198Z,74.90
2022-11-30T11:43:38.417Z,75.00
2022-11-30T11:46:14.300Z,74.95
2022-11-30T11:48:56.776Z,75.01
2022-11-30T11:51:40.549Z,74.68
2022-11-30T11:54:39.685Z,74.78
2022-11-30T11:57:15.806Z,74.74
2022-11-30T12:00:16.690Z,74.95
2022-11-30T12:03:14.952Z,74.82
2022-11-30T12:05:49.470Z,74.60
2022-11-30T12:08:31.263Z,74.83
2022-11-30T12:11:10.987Z,74.70
2022-11-30T12:13:42.170Z,74.92
2022-11-30T12:16:17.440Z,75.08
2022-11-30T12:19:20.634Z,75.03
2022-11-30T12:22:26.482Z,75.06
2022-11-30T12:25:12.962Z,74.89
2022-11-30T12:28:18.675Z,74.89
2022-11-30T12:30:59.339Z,75.11
2022-11-30T12:33:55.342Z,75.06
2022-11-30T12:36:42.922Z,75.07
2022-11-30T12:39:45.555Z,74.62
2022-11-30T12:42:38.202Z,75.00
2022-11-30T12:45:17.327Z,75.07
2022-11-30T12:48:29.690Z,74.96
2022-11-30T12:51:06.927Z,74.82
2022-11-30T12:53:56.908Z,74.87
2022-11-30T12:56:52.316Z,74.91
2022-11-30T12:59:39.233Z,74.79
2022-11-30T13:02:47.452Z,75.00
2022-11-30T13:05:24.932Z,74.74
2022-11-30T13:08:11.243Z,74.95
2022-11-30T13:10:46.394Z,75.14
2022-11-30T13:13:22.646Z,74.85
2022-11-30T13:15:50.580Z,74.86
2022-11-30T13:18:22.766Z,74.76
2022-11-30T13:21:01.813Z,74.66
2022-11-30T13:23:45.227Z,74.83
2022-11-30T13:26:16.429Z,74.90
2022-11-30T13:29:02.586Z,74.60
2022-11-30T13:31:34.686Z,74.80
2022-11-30T13:34:02.495Z,74.50
2022-11-30T13:36:38.902Z,74.76
2022-11-30T13:39:22.139Z,74.90
2022-11-30T13:42:25.882Z,74.62
2022-11-30T13:44:55.598Z,74.72
2022-11-30T13:47:29.441Z,74.55
2022-11-30T13:50:25.504Z,74.67
2022-11-30T13:52:59.093Z,74.76
2022-11-30T13:55:36.114Z,74.84
2022-11-30T13:58:07.741Z,74.80
2022-11-30T14:00:35.708Z,74.99
2022-11-30T14:03:22.238Z,74.74
2022-11-30T14:05:52.310Z,74.62
2022-11-30T14:08:23.282Z,74.64
2022-11-30T14:11:15.479Z,74.50
2022-11-30T14:13:45.263Z,74.31
2022-11-30T14:16:28.027Z,74.55
2022-11-30T14:18:57.617Z,74.59
2022-11-30T14:21:35.003Z,74.59
2022-11-30T14:24:22.094Z,74.55
2022-11-30T14:26:52.094Z,74.35
2022-11-30T14:29:25.273Z,74.72
2022-11-30T14:32:12.745Z,74.63
2022-11-30T14:34:46.084Z,74.63
2022-11-30T14:37:27.882Z,74.77
2022-11-30T14:40:01.434Z,74.82
2022-11-30T14:42:32.040Z,74.63
2022-11-30T14:45:00.765Z,74.58
2022-11-30T14:47:36.545Z,74.29
2022-11-30T14:50:06.318Z,74.46
2022-11-30T14:53:03.265Z,74.42
2022-11-30T14:55:49.996Z,74.39
2022-11-30T14:58:40.192Z,74.67
2022-11-30T15:01:31.261Z,74.44
2022-11-30T15:04:10.664Z,74.31
2022-11-30T15:06:41.285Z,74.87
2022-11-30T15:09:29.787Z,74.33
2022-11-30T15:11:58.963Z,74.52
2022-11-30T15:14:27.862Z,74.31
2022-11-30T15:16:58.910Z,74.45
2022-11-30T15:19:33.471Z,74.56
2022-11-30T15:22:01.983Z,74.80
2022-11-30T15:24:30.987Z,74.55
2022-11-30T15:27:14.555Z,74.51
2022-11-30T15:29:54.670Z,74.69
2022-11-30T15:32:28.472Z,74.65
2022-11-30T15:35:01.664Z,74.79
2022-11-30T15:37:41.364Z,74.77
2022-11-30T15:40:15.857Z,74.86
2022-11-30T15:42:49.908Z,74.67
2022-11-30T15:45:25.499Z,74.47
2022-11-30T15:47:57.643Z,74.60
2022-11-30T15:50:39.703Z,74.73
2022-11-30T15:53:32.760Z,74.63
2022-11-30T15:56:05.453Z,74.32
2022-11-30T15:58:46.087Z,74.63
2022-11-30T16:01:26.127Z,74.61
2022-11-30T16:04:05.088Z,74.53
2022-11-30T16:06:38.698Z,74.55
2022-11-30T16:09:21.027Z,74.94
2022-11-30T16:11:54.558Z,74.58
2022-11-30T16:14:24.511Z,74.87
2022-11-30T16:16:55.449Z,74.39
2022-11-30T16:19:23.254Z,75.02
2022-11-30T16:21:52.250Z,74.40
2022-11-30T16:24:23.103Z,74.38
2022-11-30T16:26:51.972Z,74.81
2022-11-30T16:29:20.908Z,74.50
2022-11-30T16:31:50.028Z,74.62
2022-11-30T16:34:17.892Z,74.65
2022-11-30T16:36:46.419Z,74.49
2022-11-30T16:39:15.256Z,74.33
2022-11-30T16:41:46.343Z,74.86
2022-11-30T16:44:15.421Z,74.88
2022-11-30T16:46:43.462Z,74.61
2022-11-30T16:49:13.911Z,74.46
2022-11-30T16:51:42.953Z,74.66
2022-11-30T16:54:16.022Z,74.34
2022-11-30T16:56:46.959Z,74.46
2022-11-30T16:59:17.143Z,74.72
2022-11-30T17:01:54.127Z,74.66
2022-11-30T17:04:26.478Z,74.41
2022-11-30T17:07:01.913Z,74.62
2022-11-30T17:09:35.531Z,74.59
2022-11-30T17:12:03.702Z,74.60
2022-11-30T17:14:31.537Z,74.50
2022-11-30T17:17:03.229Z,74.73
2022-11-30T17:19:32.044Z,74.28
2022-11-30T17:22:00.072Z,74.93
2022-11-30T17:24:28.086Z,74.60
2022-11-30T17:26:56.898Z,74.68
2022-11-30T17:29:25.311Z,74.69
2022-11-30T17:31:54.790Z,74.58
2022-11-30T17:34:22.735Z,74.82
2022-11-30T17:36:52.230Z,74.85
2022-11-30T17:39:20.573Z,74.74
2022-11-30T17:41:49.500Z,74.76
2022-11-30T17:44:18.556Z,74.81
2022-11-30T17:46:48.618Z,74.73
2022-11-30T17:49:17.561Z,74.96
2022-11-30T17:51:45.615Z,74.55
2022-11-30T17:54:13.488Z,74.53
2022-11-30T17:56:43.912Z,74.89
2022-11-30T17:59:11.902Z,74.66
2022-11-30T18:01:41.552Z,74.56
2022-11-30T18:04:10.760Z,74.53
2022-11-30T18:06:38.558Z,74.69
2022-11-30T18:09:06.293Z,74.63
2022-11-30T18:11:34.389Z,74.93
2022-11-30T18:14:06.112Z,74.84
2022-11-30T18:16:37.382Z,74.51
2022-11-30T18:19:13.119Z,74.68
2022-11-30T18:21:46.138Z,74.92
2022-11-30T18:24:13.931Z,74.54
2022-11-30T18:26:41.718Z,74.74
2022-11-30T18:29:10.966Z,74.92
2022-11-30T18:31:38.786Z,74.67
2022-11-30T18:34:07.949Z,74.67
2022-11-30T18:36:35.741Z,74.63
2022-11-30T18:39:03.796Z,74.88
2022-11-30T18:41:31.813Z,74.70
2022-11-30T18:43:59.633Z,74.72
2022-11-30T18:46:29.930Z,74.45
2022-11-30T18:49:00.018Z,74.62
2022-11-30T18:51:31.456Z,74.90
2022-11-30T18:54:03.416Z,74.78
2022-11-30T18:56:35.370Z,74.68
2022-11-30T18:59:07.970Z,74.70
2022-11-30T19:01:37.320Z,74.50
2022-11-30T19:04:08.902Z,74.54
2022-11-30T19:06:39.772Z,74.93
2022-11-30T19:09:11.517Z,74.61
2022-11-30T19:11:41.394Z,74.34
2022-11-30T19:14:14.175Z,74.65
2022-11-30T19:16:43.255Z,74.72
2022-11-30T19:19:14.643Z,74.52
2022-11-30T19:21:45.370Z,74.68
2022-11-30T19:24:14.988Z,74.72
2022-11-30T19:26:43.001Z,74.82
2022-11-30T19:29:12.925Z,74.80
2022-11-30T19:31:41.378Z,74.92
2022-11-30T19:34:12.990Z,74.58
2022-11-30T19:36:41.989Z,74.58
2022-11-30T19:39:11.130Z,74.55
2022-11-30T19:41:40.084Z,74.94
2022-11-30T19:44:14.939Z,74.44
2022-11-30T19:46:42.797Z,74.25
2022-11-30T19:49:12.148Z,74.63
2022-11-30T19:51:41.064Z,74.65
2022-11-30T19:54:09.050Z,74.62
2022-11-30T19:56:39.756Z,74.51
2022-11-30T19:59:07.733Z,74.61
2022-11-30T20:01:36.698Z,74.51
2022-11-30T20:04:05.877Z,74.66
2022-11-30T20:06:37.531Z,74.55
2022-11-30T20:09:08.201Z,74.39
2022-11-30T20:11:37.905Z,74.49
2022-11-30T20:14:07.282Z,74.18
2022-11-30T20:16:37.281Z,74.65
2022-11-30T20:19:05.833Z,74.59
2022-11-30T20:21:36.120Z,74.54
2022-11-30T20:24:08.537Z,74.51
2022-11-30T20:26:43.483Z,74.63
2022-11-30T20:29:17.579Z,74.56
2022-11-30T20:31:48.720Z,74.69
2022-11-30T20:34:18.342Z,74.58
2022-11-30T20:36:48.042Z,74.44
2022-11-30T20:39:16.092Z,74.52
2022-11-30T20:41:44.151Z,74.72
2022-11-30T20:44:15.889Z,74.52
2022-11-30T20:46:44.088Z,74.76
2022-11-30T20:49:22.485Z,74.28
2022-11-30T20:51:50.577Z,74.67
2022-11-30T20:54:20.095Z,74.54
2022-11-30T20:56:51.087Z,74.64
2022-11-30T20:59:23.920Z,74.73
2022-11-30T21:01:55.834Z,74.81
2022-11-30T21:04:26.217Z,74.65
2022-11-30T21:06:56.295Z,74.93
2022-11-30T21:09:24.269Z,74.82
2022-11-30T21:11:53.067Z,74.61
2022-11-30T21:14:20.878Z,74.97
2022-11-30T21:16:48.896Z,74.62
2022-11-30T21:19:18.181Z,74.79
2022-11-30T21:21:46.273Z,74.82
2022-11-30T21:24:14.281Z,74.72
2022-11-30T21:26:43.754Z,74.71
2022-11-30T21:29:16.819Z,74.66
2022-11-30T21:31:47.075Z,74.82
2022-11-30T21:34:15.119Z,74.84
2022-11-30T21:36:43.119Z,74.93
2022-11-30T21:39:15.237Z,74.79
2022-11-30T21:41:44.690Z,74.71
2022-11-30T21:44:15.190Z,74.77
2022-11-30T21:46:48.417Z,74.96
2022-11-30T21:49:17.715Z,75.08
2022-11-30T21:51:45.566Z,75.01
2022-11-30T21:54:14.971Z,74.96
2022-11-30T21:56:47.269Z,75.02
2022-11-30T21:59:15.327Z,75.21
2022-11-30T22:01:45.501Z,74.98
2022-11-30T22:04:15.010Z,75.25
2022-11-30T22:06:44.609Z,74.88
2022-11-30T22:09:16.649Z,74.63
2022-11-30T22:11:46.856Z,74.87
2022-11-30T22:14:16.901Z,75.15
2022-11-30T22:16:47.731Z,74.97
2022-11-30T22:19:17.900Z,75.27
2022-11-30T22:21:49.955Z,75.05
2022-11-30T22:24:19.904Z,74.86
2022-11-30T22:26:49.853Z,75.26
2022-11-30T22:29:22.741Z,75.10
2022-11-30T22:31:53.631Z,74.80
2022-11-30T22:34:22.867Z,75.08
2022-11-30T22:36:50.677Z,75.36
2022-11-30T22:39:21.248Z,74.94
2022-11-30T22:41:55.565Z,75.09
2022-11-30T22:44:27.295Z,75.29
2022-11-30T22:46:56.891Z,75.03
2022-11-30T22:49:24.939Z,74.89
2022-11-30T22:51:54.296Z,75.20
2022-11-30T22:54:22.326Z,75.08
2022-11-30T22:56:50.075Z,75.32
2022-11-30T22:59:18.634Z,75.01
2022-11-30T23:01:51.010Z,75.38
2022-11-30T23:04:23.026Z,75.52
2022-11-30T23:06:52.768Z,75.67
2022-11-30T23:09:23.728Z,75.24
2022-11-30T23:11:53.752Z,75.23
2022-11-30T23:14:21.543Z,75.31
2022-11-30T23:16:50.667Z,75.04
2022-11-30T23:19:18.731Z,75.30
2022-11-30T23:21:51.343Z,75.17
2022-11-30T23:24:22.068Z,75.50
2022-11-30T23:26:51.465Z,75.30
2022-11-30T23:29:19.260Z,75.35
2022-11-30T23:31:50.342Z,75.29
2022-11-30T23:34:22.461Z,75.40
2022-11-30T23:36:52.022Z,75.46
2022-11-30T23:39:21.569Z,75.40
2022-11-30T23:41:52.259Z,75.46
2022-11-30T23:44:20.005Z,75.31
2022-11-30T23:46:51.263Z,75.44
2022-11-30T23:49:21.689Z,75.22
2022-11-30T23:51:49.434Z,75.38
2022-11-30T23:54:18.531Z,75.36
2022-11-30T23:56:46.314Z,75.23
2022-11-30T23:59:15.065Z,75.34
